createdAt,value
2023-03-25T00:01:17.129Z,72.26
2023-03-25T00:03:46.629Z,73.42
2023-03-25T00:06:16.665Z,74.34
2023-03-25T00:08:44.765Z,73.44
2023-03-25T00:11:13.084Z,73.90
2023-03-25T00:13:42.278Z,75.03
2023-03-25T00:16:10.933Z,73.90
2023-03-25T00:18:40.128Z,74.41
2023-03-25T00:21:10.985Z,74.98
2023-03-25T00:23:42.319Z,74.65
2023-03-25T00:26:10.799Z,75.37
2023-03-25T00:28:39.661Z,74.27
2023-03-25T00:31:10.252Z,74.58
2023-03-25T00:33:41.710Z,75.00
2023-03-25T00:36:13.761Z,74.39
2023-03-25T00:38:43.973Z,74.29
2023-03-25T00:41:14.384Z,74.67
2023-03-25T00:43:42.479Z,74.90
2023-03-25T00:46:10.684Z,74.17
2023-03-25T00:48:39.289Z,73.81
2023-03-25T00:51:10.102Z,74.29
2023-03-25T00:53:39.421Z,74.72
2023-03-25T00:56:09.530Z,74.91
2023-03-25T00:58:37.601Z,73.75
2023-03-25T01:01:13.305Z,72.29
2023-03-25T01:03:44.031Z,74.28
2023-03-25T01:06:13.680Z,72.77
2023-03-25T01:08:43.256Z,74.28
2023-03-25T01:11:20.479Z,74.25
2023-03-25T01:13:51.392Z,73.08
2023-03-25T01:16:19.667Z,73.73
2023-03-25T01:18:47.733Z,72.89
2023-03-25T01:21:16.259Z,74.12
2023-03-25T01:23:44.480Z,74.48
2023-03-25T01:26:14.151Z,73.39
2023-03-25T01:28:44.668Z,73.75
2023-03-25T01:31:16.001Z,74.00
2023-03-25T01:33:44.083Z,74.99
2023-03-25T01:36:13.292Z,76.04
2023-03-25T01:38:41.899Z,75.17
2023-03-25T01:41:11.532Z,74.29
2023-03-25T01:43:39.747Z,74.88
2023-03-25T01:46:14.208Z,76.54
2023-03-25T01:48:45.184Z,77.33
2023-03-25T01:51:19.426Z,77.39
2023-03-25T01:53:48.959Z,77.31
2023-03-25T01:56:20.806Z,76.24
2023-03-25T01:58:50.566Z,74.67
2023-03-25T02:01:21.944Z,74.37
2023-03-25T02:03:53.131Z,76.08
2023-03-25T02:06:28.620Z,76.84
2023-03-25T02:08:59.024Z,77.16
2023-03-25T02:11:29.702Z,77.81
2023-03-25T02:14:00.945Z,76.65
2023-03-25T02:16:38.376Z,78.47
2023-03-25T02:19:46.078Z,74.29
2023-03-25T02:22:51.284Z,73.58
2023-03-25T02:25:39.815Z,74.14
2023-03-25T02:28:17.926Z,76.64
2023-03-25T02:31:17.752Z,77.47
2023-03-25T02:34:23.459Z,76.19
2023-03-25T02:37:26.463Z,77.48
2023-03-25T02:40:01.973Z,77.74
2023-03-25T02:42:36.280Z,76.29
2023-03-25T02:45:10.308Z,77.24
2023-03-25T02:47:43.995Z,78.18
2023-03-25T02:50:17.314Z,76.19
2023-03-25T02:52:51.023Z,76.75
2023-03-25T02:55:25.579Z,79.49
2023-03-25T02:57:57.332Z,79.61
2023-03-25T03:00:29.097Z,81.12
2023-03-25T03:03:01.074Z,81.74
2023-03-25T03:05:33.530Z,78.70
2023-03-25T03:08:22.818Z,77.42
2023-03-25T03:11:02.595Z,77.84
2023-03-25T03:13:39.671Z,77.41
2023-03-25T03:16:15.401Z,77.48
2023-03-25T03:18:52.042Z,78.63
2023-03-25T03:21:24.807Z,81.11
2023-03-25T03:23:59.382Z,80.87
2023-03-25T03:26:39.072Z,81.87
2023-03-25T03:29:14.180Z,83.07
2023-03-25T03:31:48.733Z,81.95
2023-03-25T03:34:41.207Z,78.97
2023-03-25T03:37:12.903Z,78.78
2023-03-25T03:39:43.261Z,76.54
2023-03-25T03:42:18.975Z,78.73
2023-03-25T03:44:53.741Z,79.13
2023-03-25T03:47:26.266Z,79.01
2023-03-25T03:49:59.128Z,80.47
2023-03-25T03:52:33.526Z,79.41
2023-03-25T03:55:06.634Z,77.27
2023-03-25T03:57:40.189Z,74.54
2023-03-25T04:00:15.172Z,73.53
2023-03-25T04:02:47.793Z,69.97
2023-03-25T04:05:19.520Z,71.98
2023-03-25T04:07:55.067Z,69.77
2023-03-25T04:10:29.329Z,70.41
2023-03-25T04:13:02.408Z,69.98
2023-03-25T04:15:30.563Z,70.39
2023-03-25T04:17:58.668Z,69.21
2023-03-25T04:20:29.941Z,68.07
2023-03-25T04:22:58.090Z,66.87
2023-03-25T04:25:26.307Z,66.90
2023-03-25T04:27:59.071Z,69.06
2023-03-25T04:30:31.171Z,68.88
2023-03-25T04:33:00.824Z,68.15
2023-03-25T04:35:29.043Z,70.60
2023-03-25T04:37:57.546Z,70.77
2023-03-25T04:40:25.999Z,68.20
2023-03-25T04:42:56.906Z,69.97
2023-03-25T04:45:25.684Z,70.29
2023-03-25T04:47:55.519Z,71.25
2023-03-25T04:50:25.401Z,71.15
2023-03-25T04:52:54.293Z,71.91
2023-03-25T04:55:22.990Z,71.90
2023-03-25T04:57:52.935Z,74.59
2023-03-25T05:00:24.242Z,74.18
2023-03-25T05:02:55.989Z,74.42
2023-03-25T05:05:26.057Z,75.68
2023-03-25T05:07:58.473Z,74.71
2023-03-25T05:10:29.697Z,74.36
2023-03-25T05:13:00.879Z,76.64
2023-03-25T05:15:30.659Z,77.81
2023-03-25T05:18:00.383Z,78.49
2023-03-25T05:20:28.771Z,78.09
2023-03-25T05:22:57.671Z,77.61
2023-03-25T05:25:25.874Z,77.47
2023-03-25T05:27:54.505Z,79.89
2023-03-25T05:30:22.600Z,79.70
2023-03-25T05:32:56.372Z,77.44
2023-03-25T05:35:26.894Z,78.76
2023-03-25T05:37:56.029Z,77.93
2023-03-25T05:40:25.412Z,76.96
2023-03-25T05:42:54.855Z,76.89
2023-03-25T05:45:23.601Z,76.57
2023-03-25T05:47:52.428Z,79.53
2023-03-25T05:50:21.734Z,80.96
2023-03-25T05:52:52.016Z,79.66
2023-03-25T05:55:22.721Z,79.48
2023-03-25T05:57:51.381Z,79.45
2023-03-25T06:00:23.406Z,77.74
2023-03-25T06:02:52.540Z,81.44
2023-03-25T06:05:23.975Z,79.89
2023-03-25T06:07:56.479Z,80.32
2023-03-25T06:10:25.235Z,82.10
2023-03-25T06:12:54.332Z,81.95
2023-03-25T06:15:28.922Z,78.68
2023-03-25T06:17:57.577Z,79.17
2023-03-25T06:20:25.754Z,80.57
2023-03-25T06:22:55.281Z,79.81
2023-03-25T06:25:23.633Z,81.49
2023-03-25T06:27:52.584Z,80.60
2023-03-25T06:30:22.123Z,79.67
2023-03-25T06:32:52.626Z,79.29
2023-03-25T06:35:21.516Z,80.10
2023-03-25T06:37:50.544Z,79.64
2023-03-25T06:40:32.325Z,79.52
2023-03-25T06:43:03.222Z,80.40
2023-03-25T06:45:37.717Z,78.43
2023-03-25T06:48:14.955Z,78.98
2023-03-25T06:50:43.753Z,79.32
2023-03-25T06:53:12.233Z,78.62
2023-03-25T06:55:41.816Z,80.44
2023-03-25T06:58:09.886Z,82.09
2023-03-25T07:00:38.077Z,82.13
2023-03-25T07:03:06.456Z,80.31
2023-03-25T07:05:34.785Z,81.96
2023-03-25T07:08:02.932Z,81.25
2023-03-25T07:10:32.417Z,81.73
2023-03-25T07:13:01.903Z,80.80
2023-03-25T07:15:29.962Z,82.25
2023-03-25T07:17:58.101Z,80.14
2023-03-25T07:20:26.501Z,80.49
2023-03-25T07:22:55.525Z,80.31
2023-03-25T07:25:24.015Z,79.76
2023-03-25T07:27:52.131Z,79.99
2023-03-25T07:30:22.620Z,79.44
2023-03-25T07:32:50.810Z,79.00
2023-03-25T07:35:19.110Z,78.92
2023-03-25T07:37:47.338Z,80.65
2023-03-25T07:40:15.565Z,79.52
2023-03-25T07:42:44.970Z,79.54
2023-03-25T07:45:43.822Z,81.03
2023-03-25T07:48:14.819Z,79.75
2023-03-25T07:50:44.134Z,78.77
2023-03-25T07:53:12.523Z,79.55
2023-03-25T07:55:40.642Z,76.88
2023-03-25T07:58:08.699Z,76.22
2023-03-25T08:00:38.174Z,75.82
2023-03-25T08:03:06.692Z,75.05
2023-03-25T08:05:35.830Z,76.39
2023-03-25T08:08:06.577Z,76.56
2023-03-25T08:10:35.226Z,75.69
2023-03-25T08:13:03.376Z,73.69
2023-03-25T08:15:31.520Z,73.39
2023-03-25T08:18:01.854Z,74.19
2023-03-25T08:20:30.108Z,75.90
2023-03-25T08:22:58.578Z,76.29
2023-03-25T08:25:26.779Z,74.40
2023-03-25T08:27:54.848Z,75.78
2023-03-25T08:30:23.085Z,73.23
2023-03-25T08:32:55.174Z,71.34
2023-03-25T08:35:25.215Z,70.04
2023-03-25T08:37:53.554Z,68.40
2023-03-25T08:40:21.664Z,69.46
2023-03-25T08:42:49.762Z,70.51
2023-03-25T08:45:17.976Z,72.32
2023-03-25T08:47:46.307Z,71.33
2023-03-25T08:50:14.509Z,71.06
2023-03-25T08:52:43.971Z,72.41
2023-03-25T08:55:12.674Z,71.91
2023-03-25T08:57:42.562Z,69.94
2023-03-25T09:00:14.158Z,68.75
2023-03-25T09:02:43.320Z,67.73
2023-03-25T09:05:13.322Z,67.69
2023-03-25T09:07:43.167Z,66.80
2023-03-25T09:10:13.059Z,66.06
2023-03-25T09:12:41.154Z,64.78
2023-03-25T09:15:11.631Z,62.93
2023-03-25T09:17:41.166Z,61.94
2023-03-25T09:20:10.718Z,60.93
2023-03-25T09:22:40.694Z,61.35
2023-03-25T09:25:10.836Z,59.05
2023-03-25T09:27:39.018Z,59.46
2023-03-25T09:30:08.719Z,58.90
2023-03-25T09:32:36.951Z,59.33
2023-03-25T09:35:05.540Z,59.42
2023-03-25T09:37:33.820Z,60.42
2023-03-25T09:40:01.907Z,58.89
2023-03-25T09:42:41.853Z,56.95
2023-03-25T09:45:23.585Z,56.00
2023-03-25T09:47:59.319Z,56.36
2023-03-25T09:50:30.152Z,56.83
2023-03-25T09:53:03.221Z,57.14
2023-03-25T09:55:36.334Z,57.00
2023-03-25T09:58:23.578Z,57.20
2023-03-25T10:00:57.177Z,58.51
2023-03-25T10:03:29.741Z,55.69
2023-03-25T10:06:18.832Z,56.97
2023-03-25T10:09:00.867Z,56.27
2023-03-25T10:11:38.133Z,54.55
2023-03-25T10:14:12.820Z,54.05
2023-03-25T10:16:52.751Z,54.00
2023-03-25T10:19:37.838Z,54.50
2023-03-25T10:22:10.163Z,55.61
2023-03-25T10:24:46.412Z,56.44
2023-03-25T10:27:21.195Z,53.14
2023-03-25T10:29:54.098Z,52.88
2023-03-25T10:32:33.552Z,53.99
2023-03-25T10:35:05.512Z,54.44
2023-03-25T10:37:36.710Z,55.50
2023-03-25T10:40:16.688Z,54.18
2023-03-25T10:42:57.304Z,56.19
2023-03-25T10:45:29.608Z,55.34
2023-03-25T10:48:06.678Z,54.74
2023-03-25T10:50:35.397Z,55.00
2023-03-25T10:53:06.707Z,57.19
2023-03-25T10:55:37.275Z,57.21
2023-03-25T10:58:06.537Z,55.41
2023-03-25T11:00:35.966Z,57.37
2023-03-25T11:03:05.469Z,54.76
2023-03-25T11:05:35.632Z,54.40
2023-03-25T11:08:18.069Z,53.88
2023-03-25T11:10:51.722Z,52.24
2023-03-25T11:13:22.273Z,53.14
2023-03-25T11:15:54.882Z,53.51
2023-03-25T11:18:27.737Z,52.67
2023-03-25T11:20:59.175Z,53.30
2023-03-25T11:23:31.988Z,51.23
2023-03-25T11:26:06.223Z,52.39
2023-03-25T11:28:39.346Z,54.13
2023-03-25T11:31:12.873Z,51.96
2023-03-25T11:33:42.918Z,48.75
2023-03-25T11:36:26.329Z,49.17
2023-03-25T11:38:59.122Z,49.59
2023-03-25T11:41:35.709Z,49.74
2023-03-25T11:44:07.004Z,52.15
2023-03-25T11:46:43.669Z,51.38
2023-03-25T11:49:13.372Z,50.91
2023-03-25T11:51:41.596Z,52.66
2023-03-25T11:54:13.820Z,54.06
2023-03-25T11:56:45.015Z,54.72
2023-03-25T11:59:22.970Z,55.73
2023-03-25T12:02:01.475Z,63.17
2023-03-25T12:04:29.813Z,65.23
2023-03-25T12:07:00.875Z,67.55
2023-03-25T12:09:31.530Z,68.39
2023-03-25T12:12:32.369Z,69.54
2023-03-25T12:15:14.508Z,69.37
2023-03-25T12:17:57.720Z,68.89
2023-03-25T12:20:32.042Z,69.44
2023-03-25T12:23:03.614Z,69.03
2023-03-25T12:25:47.517Z,70.48
2023-03-25T12:28:37.772Z,73.06
2023-03-25T12:31:13.708Z,75.41
2023-03-25T12:33:55.906Z,78.29
2023-03-25T12:36:48.297Z,77.11
2023-03-25T12:39:42.911Z,76.68
2023-03-25T12:42:26.690Z,75.35
2023-03-25T12:45:09.378Z,74.70
2023-03-25T12:47:43.224Z,71.84
2023-03-25T12:50:36.621Z,70.54
2023-03-25T12:53:27.180Z,73.11
2023-03-25T12:56:11.219Z,73.12
2023-03-25T12:59:02.416Z,72.31
2023-03-25T13:01:39.318Z,70.72
2023-03-25T13:04:24.358Z,69.39
2023-03-25T13:07:02.000Z,66.68
2023-03-25T13:09:34.277Z,69.05
2023-03-25T13:12:06.589Z,68.62
2023-03-25T13:14:39.108Z,67.27
2023-03-25T13:17:15.660Z,67.59
2023-03-25T13:19:44.369Z,68.86
2023-03-25T13:22:24.111Z,66.68
2023-03-25T13:24:56.694Z,66.67
2023-03-25T13:27:24.860Z,62.00
2023-03-25T13:29:56.126Z,58.06
2023-03-25T13:32:30.748Z,57.88
2023-03-25T13:35:03.939Z,56.91
2023-03-25T13:37:37.826Z,56.04
2023-03-25T13:40:19.169Z,56.21
2023-03-25T13:42:55.676Z,56.47
2023-03-25T13:45:26.556Z,55.83
2023-03-25T13:48:03.903Z,55.58
2023-03-25T13:50:33.304Z,55.27
2023-03-25T13:53:07.721Z,54.73
2023-03-25T13:55:40.848Z,54.70
2023-03-25T13:58:37.281Z,53.57
2023-03-25T14:01:22.068Z,57.17
2023-03-25T14:04:25.550Z,56.40
2023-03-25T14:07:27.254Z,58.02
2023-03-25T14:10:31.594Z,57.11
2023-03-25T14:13:05.375Z,57.36
2023-03-25T14:15:37.239Z,57.34
2023-03-25T14:18:06.919Z,58.61
2023-03-25T14:20:40.254Z,58.15
2023-03-25T14:23:15.035Z,57.53
2023-03-25T14:25:46.097Z,58.22
2023-03-25T14:28:21.395Z,57.75
2023-03-25T14:31:08.743Z,57.96
2023-03-25T14:34:10.455Z,56.68
2023-03-25T14:37:12.809Z,57.56
2023-03-25T14:39:42.117Z,58.20
2023-03-25T14:42:26.109Z,58.63
2023-03-25T14:45:16.260Z,57.10
2023-03-25T14:47:52.911Z,56.71
2023-03-25T14:50:35.591Z,56.45
2023-03-25T14:53:06.378Z,55.33
2023-03-25T14:55:42.282Z,57.75
2023-03-25T14:58:21.137Z,57.13
2023-03-25T15:00:56.263Z,59.48
2023-03-25T15:03:33.917Z,59.14
2023-03-25T15:06:02.868Z,59.19
2023-03-25T15:08:36.988Z,59.63
2023-03-25T15:11:09.072Z,59.63
2023-03-25T15:13:40.243Z,59.90
2023-03-25T15:16:19.893Z,60.45
2023-03-25T15:19:04.709Z,59.95
2023-03-25T15:21:35.820Z,58.98
2023-03-25T15:24:08.420Z,59.64
2023-03-25T15:26:40.297Z,61.14
2023-03-25T15:29:39.800Z,62.45
2023-03-25T15:32:22.858Z,62.17
2023-03-25T15:35:10.352Z,63.00
2023-03-25T15:37:56.751Z,60.72
2023-03-25T15:40:33.443Z,57.76
2023-03-25T15:43:25.879Z,56.18
2023-03-25T15:46:12.861Z,56.11
2023-03-25T15:48:58.127Z,55.57
2023-03-25T15:51:38.674Z,54.93
2023-03-25T15:54:29.239Z,53.97
2023-03-25T15:57:01.331Z,53.47
2023-03-25T15:59:42.724Z,51.62
2023-03-25T16:02:21.164Z,51.18
2023-03-25T16:04:52.300Z,51.71
2023-03-25T16:07:24.708Z,52.25
2023-03-25T16:09:53.375Z,53.25
2023-03-25T16:12:24.198Z,53.87
2023-03-25T16:14:53.752Z,54.12
2023-03-25T16:17:27.584Z,53.75
2023-03-25T16:19:58.394Z,52.60
2023-03-25T16:22:29.470Z,54.30
2023-03-25T16:24:59.913Z,57.05
2023-03-25T16:27:32.203Z,55.63
2023-03-25T16:30:00.707Z,55.34
2023-03-25T16:32:33.685Z,55.86
2023-03-25T16:35:04.732Z,56.54
2023-03-25T16:37:34.109Z,56.29
2023-03-25T16:40:07.202Z,55.23
2023-03-25T16:42:37.286Z,54.69
2023-03-25T16:45:09.230Z,55.10
2023-03-25T16:47:37.509Z,54.67
2023-03-25T16:50:08.454Z,54.76
2023-03-25T16:52:41.146Z,54.72
2023-03-25T16:55:28.846Z,55.16
2023-03-25T16:57:57.365Z,55.17
2023-03-25T17:00:25.665Z,54.73
2023-03-25T17:02:54.173Z,55.36
2023-03-25T17:05:26.277Z,55.04
2023-03-25T17:07:59.321Z,56.86
2023-03-25T17:10:29.856Z,58.12
2023-03-25T17:13:00.638Z,57.63
2023-03-25T17:15:29.014Z,57.92
2023-03-25T17:18:01.413Z,59.19
2023-03-25T17:20:37.999Z,59.35
2023-03-25T17:23:09.280Z,60.12
2023-03-25T17:25:52.610Z,60.86
2023-03-25T17:28:35.226Z,61.49
2023-03-25T17:31:19.081Z,61.57
2023-03-25T17:33:51.214Z,61.88
2023-03-25T17:36:21.988Z,61.96
2023-03-25T17:38:53.546Z,61.63
2023-03-25T17:41:22.405Z,62.30
2023-03-25T17:43:52.547Z,62.00
2023-03-25T17:46:22.130Z,61.62
2023-03-25T17:48:53.367Z,62.18
2023-03-25T17:51:23.256Z,61.32
2023-03-25T17:53:51.340Z,65.98
2023-03-25T17:56:24.405Z,68.71
2023-03-25T17:58:57.297Z,68.63
2023-03-25T18:01:27.467Z,70.19
2023-03-25T18:03:56.128Z,69.87
2023-03-25T18:06:26.155Z,71.09
2023-03-25T18:08:54.275Z,71.81
2023-03-25T18:11:22.669Z,72.01
2023-03-25T18:13:50.899Z,72.77
2023-03-25T18:16:21.736Z,73.69
2023-03-25T18:18:50.408Z,73.12
2023-03-25T18:21:20.174Z,71.93
2023-03-25T18:23:49.689Z,71.31
2023-03-25T18:26:19.631Z,70.78
2023-03-25T18:28:48.728Z,70.58
2023-03-25T18:31:18.426Z,71.89
2023-03-25T18:33:48.385Z,72.13
2023-03-25T18:36:16.921Z,72.00
2023-03-25T18:38:45.052Z,72.13
2023-03-25T18:41:15.588Z,72.26
2023-03-25T18:43:44.003Z,72.76
2023-03-25T18:46:14.063Z,71.86
2023-03-25T18:48:42.936Z,71.65
2023-03-25T18:51:12.471Z,70.64
2023-03-25T18:53:41.361Z,70.31
2023-03-25T18:56:10.679Z,70.87
2023-03-25T18:58:40.188Z,72.33
2023-03-25T19:01:10.111Z,71.14
2023-03-25T19:03:39.623Z,71.09
2023-03-25T19:06:10.159Z,71.94
2023-03-25T19:08:38.576Z,71.97
2023-03-25T19:11:20.060Z,72.60
2023-03-25T19:13:52.099Z,72.51
2023-03-25T19:16:21.093Z,70.77
2023-03-25T19:18:49.949Z,71.19
2023-03-25T19:21:19.358Z,69.64
2023-03-25T19:23:48.257Z,69.13
2023-03-25T19:26:16.380Z,69.08
2023-03-25T19:28:44.716Z,68.33
2023-03-25T19:31:16.857Z,67.53
2023-03-25T19:33:45.211Z,66.01
2023-03-25T19:36:16.076Z,66.44
2023-03-25T19:38:44.172Z,66.58
2023-03-25T19:41:15.608Z,67.20
2023-03-25T19:43:43.767Z,68.55
2023-03-25T19:46:12.301Z,68.07
2023-03-25T19:48:41.942Z,66.99
2023-03-25T19:51:10.123Z,67.22
2023-03-25T19:53:38.357Z,67.56
2023-03-25T19:56:07.064Z,66.40
2023-03-25T19:58:35.653Z,66.16
2023-03-25T20:01:03.779Z,65.51
2023-03-25T20:03:33.053Z,65.33
2023-03-25T20:06:03.849Z,65.74
2023-03-25T20:08:32.094Z,65.18
2023-03-25T20:11:01.537Z,65.23
2023-03-25T20:13:29.612Z,65.02
2023-03-25T20:15:57.855Z,65.36
2023-03-25T20:18:25.922Z,66.42
2023-03-25T20:20:54.052Z,66.15
2023-03-25T20:23:23.591Z,66.02
2023-03-25T20:25:52.546Z,66.06
2023-03-25T20:28:20.934Z,65.26
2023-03-25T20:30:49.066Z,65.05
2023-03-25T20:33:17.163Z,65.98
2023-03-25T20:35:45.567Z,65.65
2023-03-25T20:38:14.383Z,65.31
2023-03-25T20:40:45.221Z,65.13
2023-03-25T20:43:15.125Z,64.87
2023-03-25T20:45:44.040Z,65.56
2023-03-25T20:48:12.384Z,65.36
2023-03-25T20:50:40.503Z,66.07
2023-03-25T20:53:09.159Z,65.98
2023-03-25T20:55:37.529Z,65.23
2023-03-25T20:58:08.868Z,65.37
2023-03-25T21:00:37.503Z,65.48
2023-03-25T21:03:06.106Z,64.20
2023-03-25T21:05:34.459Z,65.88
2023-03-25T21:08:02.801Z,65.48
2023-03-25T21:10:30.953Z,65.23
2023-03-25T21:12:59.001Z,65.25
2023-03-25T21:15:28.728Z,65.14
2023-03-25T21:17:56.874Z,65.40
2023-03-25T21:20:27.184Z,65.33
2023-03-25T21:22:57.140Z,64.33
2023-03-25T21:25:25.307Z,64.86
2023-03-25T21:27:54.148Z,65.38
2023-03-25T21:30:22.253Z,66.04
2023-03-25T21:32:51.857Z,65.60
2023-03-25T21:35:20.267Z,67.56
2023-03-25T21:37:49.127Z,67.47
2023-03-25T21:40:17.537Z,68.18
2023-03-25T21:42:46.767Z,68.57
2023-03-25T21:45:17.852Z,69.24
2023-03-25T21:47:53.536Z,68.13
2023-03-25T21:50:23.334Z,68.26
2023-03-25T21:52:51.488Z,68.42
2023-03-25T21:55:19.686Z,68.04
2023-03-25T21:57:47.971Z,66.35
2023-03-25T22:00:19.621Z,66.46
2023-03-25T22:02:48.692Z,66.36
2023-03-25T22:05:17.973Z,67.18
2023-03-25T22:07:47.407Z,67.28
2023-03-25T22:10:15.516Z,66.45
2023-03-25T22:12:43.542Z,66.66
2023-03-25T22:15:12.475Z,66.88
2023-03-25T22:17:40.682Z,66.78
2023-03-25T22:20:10.315Z,66.80
2023-03-25T22:22:38.445Z,67.19
2023-03-25T22:25:09.426Z,66.88
2023-03-25T22:27:38.333Z,67.78
2023-03-25T22:30:09.375Z,67.86
2023-03-25T22:32:37.729Z,67.50
2023-03-25T22:35:06.660Z,67.87
2023-03-25T22:37:37.005Z,67.98
2023-03-25T22:40:08.708Z,69.73
2023-03-25T22:42:38.420Z,68.90
2023-03-25T22:45:08.128Z,68.05
2023-03-25T22:47:36.671Z,68.44
2023-03-25T22:50:05.079Z,71.01
2023-03-25T22:52:33.109Z,70.56
2023-03-25T22:55:06.387Z,70.31
2023-03-25T22:57:34.713Z,70.29
2023-03-25T23:00:12.810Z,70.05
2023-03-25T23:02:41.999Z,69.76
2023-03-25T23:05:11.289Z,68.85
2023-03-25T23:07:39.445Z,68.52
2023-03-25T23:10:08.316Z,68.77
2023-03-25T23:12:36.389Z,68.66
2023-03-25T23:15:07.559Z,67.85
2023-03-25T23:17:36.380Z,68.40
2023-03-25T23:20:07.203Z,66.95
2023-03-25T23:22:35.595Z,68.06
2023-03-25T23:25:05.024Z,68.23
2023-03-25T23:27:34.264Z,67.04
2023-03-25T23:30:03.187Z,66.21
2023-03-25T23:32:34.373Z,66.49
2023-03-25T23:35:03.478Z,66.62
2023-03-25T23:37:34.031Z,66.19
2023-03-25T23:40:02.346Z,64.15
2023-03-25T23:42:34.920Z,65.27
2023-03-25T23:45:04.007Z,65.63
2023-03-25T23:47:33.597Z,65.65
2023-03-25T23:50:03.074Z,65.72
2023-03-25T23:52:33.499Z,65.35
2023-03-25T23:55:01.800Z,66.78
2023-03-25T23:57:30.843Z,69.30
2023-03-25T23:59:59.011Z,68.37
